首页
METAR-TAF:

METAR-TAF

机场 :

阿姆斯特丹史基浦機場

阿姆斯特丹, 荷兰

纬度: 52-18N, 经度: 004-46E, 海拔: -4米

当前天气观测

该预报发布于18分钟前的14:25 UTC
风速18节,风向西转西北,有时为28节阵风
温度 14°C
湿度 77%
气压 1022 hPa
能见度10公里或以上
少量云层高于1800英尺
多云层高于2100英尺
多云层高于2500英尺

METAR: EHAM 231425Z 29018G28KT 9999 FEW018 BKN021 BKN025 14/10 Q1022 NOSIG

时间: 16:43 (14:43 UTC)

预报

该预报发布于3小时和29分钟前的11:14 UTC
预报有效从23日的 12点(UTC)到 24日的 18点(UTC)
风速20节,风向西,有时为30节阵风
能见度10公里或以上
散云层高于1900英尺
多云层高于3000英尺
成为
从 23日的 14点(UTC)到 23日的 17点(UTC)
风速15节,风向西转西北,有时为25节阵风
几率 30% :
短暂存在
从 23日的 17点(UTC)到 23日的 20点(UTC)
能見度: 5000
少量云层高于1500英尺
多云层高于1800英尺
小毛毛雨, 雨
几率 40% :
短暂存在
从 24日的 05点(UTC)到 24日的 10点(UTC)
能見度: 5000
散云层高于1800英尺
多云层高于2500英尺
小雨, 毛毛雨
成为
从 24日的 12点(UTC)到 24日的 15点(UTC)
风速9节,风向西转西北

TAF: EHAM 231114Z 2312/2418 28020G30KT 9999 SCT019 BKN030 BECMG 2314/2317 30015G25KT PROB30 TEMPO 2317/2320 5000 -DZRA FEW015 BKN018 PROB40 TEMPO 2405/2410 5000 -RADZ SCT018 BKN025 BECMG 2412/2415 29009KT

超过4000个机场的气象观测和天气预报(METAR&TAF报告)。

可查询的气象台以黄色和红色小点在地图上表示。

将鼠标移到小点上方,可查看气象台名称。

然后点击查看天气观测和预报。

如需切换地图:点击带黑十字的绿色按钮放大地图;点击带横线的绿色按钮缩小地图;或者点击绿色箭头查看邻近地区的地图。


METAR-TAF: